Time;durP1;ratioP1;P1;durP2;ratioP2;P2;SDS_P1;SDS_P2;PMS_P1;PMS_P2;Temp;Humidity;BMP_temperature;BMP_pressure;BME280_temperature;BME280_humidity;BME280_pressure;Samples;Min_cycle;Max_cycle;Signal;HPM_P1;HPM_P2
2024/01/22 00:02:04;;;;;;;6.15;1.90;;;;;;;;;;5156121;27;20103;-78
2024/01/22 00:04:30;;;;;;;4.75;1.80;;;;;;;;;;5155557;27;20047;-78
2024/01/22 00:06:56;;;;;;;6.75;2.88;;;;;;;;;;5137062;27;20090;-78
2024/01/22 00:09:22;;;;;;;8.02;3.05;;;;;;;;;;5155504;27;20038;-78
2024/01/22 00:11:48;;;;;;;4.45;2.83;;;;;;;;;;5137214;27;20444;-78
2024/01/22 00:14:15;;;;;;;3.78;1.80;;;;;;;;;;5136374;27;20057;-78
2024/01/22 00:16:41;;;;;;;3.78;2.03;;;;;;;;;;5136742;27;20474;-78
2024/01/22 00:19:10;;;;;;;6.43;2.30;;;;;;;;;;5156044;27;20174;-78
2024/01/22 00:21:40;;;;;;;7.22;2.70;;;;;;;;;;5137109;27;20034;-78
2024/01/22 00:24:07;;;;;;;5.43;2.28;;;;;;;;;;5136400;27;20500;-78
2024/01/22 00:26:33;;;;;;;6.45;2.22;;;;;;;;;;5136954;27;20474;-78
2024/01/22 00:28:59;;;;;;;5.20;2.35;;;;;;;;;;5119944;27;20054;-78
2024/01/22 00:31:25;;;;;;;7.22;2.70;;;;;;;;;;5119692;27;20082;-78
2024/01/22 00:33:51;;;;;;;5.13;2.30;;;;;;;;;;5155058;27;20053;-78
2024/01/22 00:36:17;;;;;;;6.15;2.75;;;;;;;;;;5137045;27;20055;-78
2024/01/22 00:38:43;;;;;;;4.63;2.47;;;;;;;;;;5136952;27;20081;-78
2024/01/22 00:41:09;;;;;;;3.90;2.15;;;;;;;;;;5136418;27;20406;-78
2024/01/22 00:43:36;;;;;;;3.20;2.08;;;;;;;;;;5136932;27;20050;-78
2024/01/22 00:46:03;;;;;;;3.63;1.60;;;;;;;;;;5136695;27;20082;-78
2024/01/22 00:48:29;;;;;;;5.63;2.90;;;;;;;;;;5137138;27;20385;-78
2024/01/22 00:50:55;;;;;;;6.32;2.00;;;;;;;;;;5154889;27;20638;-78
2024/01/22 00:53:21;;;;;;;5.38;2.35;;;;;;;;;;5136903;27;20125;-78
2024/01/22 00:55:47;;;;;;;4.20;2.15;;;;;;;;;;5154547;27;20072;-78
2024/01/22 00:58:13;;;;;;;2.95;1.23;;;;;;;;;;5155170;27;20055;-78
2024/01/22 01:00:39;;;;;;;4.07;1.60;;;;;;;;;;5136367;27;20397;-78
2024/01/22 01:03:05;;;;;;;4.13;1.92;;;;;;;;;;5155159;27;20184;-78
2024/01/22 01:05:31;;;;;;;4.05;2.00;;;;;;;;;;5154947;27;20050;-78
2024/01/22 01:07:57;;;;;;;3.92;1.73;;;;;;;;;;5136763;27;20055;-78
2024/01/22 01:10:23;;;;;;;2.50;1.30;;;;;;;;;;5136542;27;20053;-78
2024/01/22 01:12:49;;;;;;;6.00;2.00;;;;;;;;;;5154894;27;20055;-78
2024/01/22 01:15:17;;;;;;;4.60;1.70;;;;;;;;;;5136723;27;20074;-78
2024/01/22 01:17:43;;;;;;;3.42;1.38;;;;;;;;;;5136513;27;20099;-78
2024/01/22 01:20:10;;;;;;;4.00;1.80;;;;;;;;;;5154700;27;20126;-78
2024/01/22 01:22:36;;;;;;;2.85;1.88;;;;;;;;;;5154899;27;20429;-78
2024/01/22 01:25:02;;;;;;;3.13;1.60;;;;;;;;;;5156403;27;20043;-78
2024/01/22 01:27:28;;;;;;;2.92;1.58;;;;;;;;;;5140395;27;20038;-78
2024/01/22 01:29:54;;;;;;;3.00;1.20;;;;;;;;;;5158571;27;20039;-78
2024/01/22 01:32:21;;;;;;;3.05;1.45;;;;;;;;;;5140327;27;20050;-78
2024/01/22 01:34:47;;;;;;;3.05;1.38;;;;;;;;;;5140181;27;20091;-78
2024/01/22 01:37:13;;;;;;;3.22;1.08;;;;;;;;;;5140115;27;20034;-78
2024/01/22 01:39:39;;;;;;;1.52;0.82;;;;;;;;;;5158196;27;20039;-78
2024/01/22 01:42:05;;;;;;;2.92;1.50;;;;;;;;;;5140676;27;20134;-77
2024/01/22 01:44:37;;;;;;;4.45;1.83;;;;;;;;;;5158443;27;20039;-78
2024/01/22 01:47:04;;;;;;;2.10;1.23;;;;;;;;;;5158114;27;20050;-78
2024/01/22 01:49:30;;;;;;;3.67;2.38;;;;;;;;;;5139846;27;20434;-78
2024/01/22 01:51:57;;;;;;;3.47;1.33;;;;;;;;;;5139797;27;20075;-78
2024/01/22 01:54:23;;;;;;;2.97;1.73;;;;;;;;;;5142168;27;20050;-78
2024/01/22 01:56:49;;;;;;;4.40;2.00;;;;;;;;;;5136078;27;20055;-78
2024/01/22 01:59:16;;;;;;;2.05;1.52;;;;;;;;;;5118058;27;20051;-78
2024/01/22 02:01:42;;;;;;;4.97;1.58;;;;;;;;;;5118737;27;20043;-78
2024/01/22 02:04:08;;;;;;;3.55;2.15;;;;;;;;;;5118940;27;20475;-78
2024/01/22 02:06:34;;;;;;;4.43;1.75;;;;;;;;;;5118693;27;20402;-78
2024/01/22 02:09:00;;;;;;;3.80;1.80;;;;;;;;;;5118910;27;20069;-78
2024/01/22 02:11:26;;;;;;;4.47;2.15;;;;;;;;;;5118808;27;20047;-78
2024/01/22 02:13:55;;;;;;;6.05;2.65;;;;;;;;;;5118839;27;20475;-78
2024/01/22 02:16:21;;;;;;;3.85;2.20;;;;;;;;;;5136540;27;20483;-78
2024/01/22 02:18:47;;;;;;;4.03;2.15;;;;;;;;;;5101633;27;20046;-78
2024/01/22 02:21:16;;;;;;;2.67;1.38;;;;;;;;;;5136687;27;20051;-78
2024/01/22 02:23:43;;;;;;;3.10;2.00;;;;;;;;;;5101706;27;20480;-79
2024/01/22 02:26:09;;;;;;;3.70;1.80;;;;;;;;;;5136878;27;20505;-78
2024/01/22 02:28:35;;;;;;;5.30;2.13;;;;;;;;;;5136617;27;20103;-78
2024/01/22 02:31:02;;;;;;;4.15;2.58;;;;;;;;;;5118421;27;20103;-78
2024/01/22 02:33:28;;;;;;;4.90;2.92;;;;;;;;;;5136534;27;20055;-78
2024/01/22 02:35:54;;;;;;;3.63;2.00;;;;;;;;;;5117383;27;20043;-78
2024/01/22 02:38:20;;;;;;;5.22;2.20;;;;;;;;;;5118311;27;20043;-78
2024/01/22 02:40:46;;;;;;;3.38;1.85;;;;;;;;;;5118006;27;20103;-78
2024/01/22 02:43:12;;;;;;;3.00;2.00;;;;;;;;;;5117839;27;20055;-79
2024/01/22 02:45:39;;;;;;;5.07;2.15;;;;;;;;;;5101150;27;20051;-79
2024/01/22 02:48:05;;;;;;;3.80;2.35;;;;;;;;;;5118140;27;20058;-79
2024/01/22 02:50:31;;;;;;;3.72;1.92;;;;;;;;;;5136213;27;20050;-79
2024/01/22 02:52:57;;;;;;;4.82;2.30;;;;;;;;;;5136128;27;20051;-78
2024/01/22 02:55:23;;;;;;;2.03;1.48;;;;;;;;;;5117699;27;20054;-79
2024/01/22 02:57:49;;;;;;;4.88;2.40;;;;;;;;;;5096990;28;20407;-79
2024/01/22 03:00:16;;;;;;;3.40;1.85;;;;;;;;;;5115432;28;20051;-78
2024/01/22 03:02:42;;;;;;;4.07;2.22;;;;;;;;;;5115157;28;20044;-79
2024/01/22 03:05:08;;;;;;;2.70;1.58;;;;;;;;;;5115350;28;20067;-78
2024/01/22 03:07:34;;;;;;;4.00;1.95;;;;;;;;;;5114146;28;20494;-78
2024/01/22 03:10:00;;;;;;;3.95;1.38;;;;;;;;;;5115358;28;20039;-78
2024/01/22 03:12:26;;;;;;;6.30;2.05;;;;;;;;;;5115011;28;20160;-78
2024/01/22 03:14:52;;;;;;;4.60;2.00;;;;;;;;;;5096871;28;20051;-77
2024/01/22 03:17:18;;;;;;;2.85;1.45;;;;;;;;;;5115121;28;20530;-78
2024/01/22 03:19:44;;;;;;;3.38;1.50;;;;;;;;;;5114915;28;20047;-77
2024/01/22 03:22:10;;;;;;;5.30;1.70;;;;;;;;;;5115039;28;20051;-78
2024/01/22 03:24:37;;;;;;;3.22;1.40;;;;;;;;;;5114056;28;20062;-77
2024/01/22 03:27:03;;;;;;;2.78;1.33;;;;;;;;;;5113522;28;20549;-78
2024/01/22 03:29:29;;;;;;;3.85;1.13;;;;;;;;;;5114630;28;20047;-79
2024/01/22 03:31:56;;;;;;;2.65;1.15;;;;;;;;;;5097178;28;20392;-79
2024/01/22 03:34:22;;;;;;;6.45;1.27;;;;;;;;;;5113778;28;20066;-78
2024/01/22 03:36:48;;;;;;;4.90;1.55;;;;;;;;;;5113756;28;20047;-79
2024/01/22 03:39:14;;;;;;;2.15;1.10;;;;;;;;;;5114558;28;20054;-79
2024/01/22 03:41:40;;;;;;;2.83;1.60;;;;;;;;;;5113711;28;20056;-78
2024/01/22 03:44:06;;;;;;;1.85;1.02;;;;;;;;;;5114633;28;20152;-79
2024/01/22 03:46:32;;;;;;;1.67;0.95;;;;;;;;;;5114679;28;20054;-78
2024/01/22 03:48:58;;;;;;;2.25;1.38;;;;;;;;;;5113101;28;20075;-79
2024/01/22 03:51:24;;;;;;;2.90;1.10;;;;;;;;;;5114557;28;20083;-79
2024/01/22 03:53:50;;;;;;;1.90;1.00;;;;;;;;;;5112981;28;20055;-79
2024/01/22 03:56:19;;;;;;;3.97;1.38;;;;;;;;;;5113615;28;20075;-78
2024/01/22 03:58:45;;;;;;;1.92;1.20;;;;;;;;;;5116399;27;20391;-79
2024/01/22 04:01:18;;;;;;;2.50;0.98;;;;;;;;;;5116148;27;20049;-79
2024/01/22 04:03:44;;;;;;;1.00;0.80;;;;;;;;;;5135152;27;20045;-79
2024/01/22 04:06:10;;;;;;;2.35;0.98;;;;;;;;;;5134859;27;20085;-78
2024/01/22 04:08:36;;;;;;;3.13;1.30;;;;;;;;;;5116726;27;20093;-78
2024/01/22 04:11:02;;;;;;;2.90;1.30;;;;;;;;;;5116663;27;20471;-78
2024/01/22 04:13:29;;;;;;;3.22;0.95;;;;;;;;;;5134573;27;20054;-79
2024/01/22 04:15:55;;;;;;;4.25;1.08;;;;;;;;;;5134737;27;20129;-79
2024/01/22 04:18:21;;;;;;;2.88;1.30;;;;;;;;;;5116799;28;20089;-79
2024/01/22 04:20:47;;;;;;;2.47;0.85;;;;;;;;;;5116322;28;20039;-79
2024/01/22 04:23:13;;;;;;;1.55;1.20;;;;;;;;;;5134583;28;20051;-79
2024/01/22 04:25:39;;;;;;;3.17;1.42;;;;;;;;;;5134097;28;20399;-78
2024/01/22 04:28:05;;;;;;;1.80;1.35;;;;;;;;;;5099570;28;20047;-78
2024/01/22 04:30:31;;;;;;;2.83;1.50;;;;;;;;;;5116166;28;20043;-78
2024/01/22 04:32:57;;;;;;;2.22;1.45;;;;;;;;;;5134433;28;20391;-78
2024/01/22 04:35:23;;;;;;;2.15;1.77;;;;;;;;;;5116631;28;20047;-79
2024/01/22 04:37:49;;;;;;;4.18;1.58;;;;;;;;;;5082727;28;20474;-78
2024/01/22 04:40:16;;;;;;;2.00;1.73;;;;;;;;;;5116557;28;20047;-78
2024/01/22 04:42:43;;;;;;;3.72;1.33;;;;;;;;;;5134465;28;20047;-79
2024/01/22 04:45:10;;;;;;;3.38;1.15;;;;;;;;;;5134426;28;20043;-79
2024/01/22 04:47:36;;;;;;;2.38;0.95;;;;;;;;;;5116327;28;20142;-78
2024/01/22 04:50:02;;;;;;;1.17;0.65;;;;;;;;;;5134318;28;20044;-78
2024/01/22 04:52:28;;;;;;;1.30;1.17;;;;;;;;;;5116254;28;20047;-78
2024/01/22 04:54:54;;;;;;;1.92;0.90;;;;;;;;;;5115644;28;20073;-79
2024/01/22 04:57:20;;;;;;;2.30;0.93;;;;;;;;;;5116060;28;20111;-78
2024/01/22 04:59:47;;;;;;;1.92;0.70;;;;;;;;;;5135964;27;20088;-78
2024/01/22 05:02:13;;;;;;;0.70;0.40;;;;;;;;;;5138408;27;20051;-79
2024/01/22 05:04:40;;;;;;;0.98;0.70;;;;;;;;;;5120151;27;20066;-78
2024/01/22 05:07:06;;;;;;;1.08;0.50;;;;;;;;;;5120028;27;20157;-78
2024/01/22 05:09:32;;;;;;;2.53;0.50;;;;;;;;;;5138239;27;20390;-79
2024/01/22 05:11:58;;;;;;;0.60;0.40;;;;;;;;;;5103547;27;20047;-78
2024/01/22 05:14:24;;;;;;;0.90;0.50;;;;;;;;;;5138084;27;20069;-78
2024/01/22 05:16:50;;;;;;;5.25;0.80;;;;;;;;;;5137993;27;20043;-78
2024/01/22 05:19:16;;;;;;;1.90;0.50;;;;;;;;;;5119837;27;20043;-78
2024/01/22 05:21:42;;;;;;;4.03;0.88;;;;;;;;;;5119729;27;20058;-78
2024/01/22 05:24:08;;;;;;;1.33;0.52;;;;;;;;;;5136776;27;20047;-78
2024/01/22 05:26:34;;;;;;;1.00;0.40;;;;;;;;;;5137880;27;20075;-78
2024/01/22 05:29:00;;;;;;;2.05;1.15;;;;;;;;;;5119675;27;20054;-78
2024/01/22 05:31:26;;;;;;;0.85;0.60;;;;;;;;;;5137755;27;20167;-78
2024/01/22 05:33:52;;;;;;;1.00;0.50;;;;;;;;;;5119584;27;20043;-78
2024/01/22 05:36:18;;;;;;;3.13;0.57;;;;;;;;;;5119196;27;20375;-78
2024/01/22 05:38:44;;;;;;;1.50;0.60;;;;;;;;;;5137490;27;20043;-78
2024/01/22 05:41:11;;;;;;;0.90;0.40;;;;;;;;;;5138037;27;20043;-78
2024/01/22 05:43:37;;;;;;;0.93;0.47;;;;;;;;;;5119506;27;20047;-78
2024/01/22 05:46:03;;;;;;;2.55;0.65;;;;;;;;;;5119379;27;20047;-78
2024/01/22 05:48:29;;;;;;;0.55;0.32;;;;;;;;;;5120133;27;20066;-78
2024/01/22 05:50:55;;;;;;;1.80;0.80;;;;;;;;;;5137254;27;20490;-78
2024/01/22 05:53:21;;;;;;;1.15;0.45;;;;;;;;;;5118944;27;20039;-78
2024/01/22 05:55:47;;;;;;;0.80;0.50;;;;;;;;;;5118466;27;20047;-78
2024/01/22 05:58:14;;;;;;;3.13;0.57;;;;;;;;;;5115362;28;20059;-78
2024/01/22 06:00:40;;;;;;;2.10;0.60;;;;;;;;;;5116529;28;20087;-78
2024/01/22 06:03:07;;;;;;;1.85;0.40;;;;;;;;;;5107886;28;20119;-78
2024/01/22 06:05:33;;;;;;;3.17;0.47;;;;;;;;;;5096191;28;20055;-78
2024/01/22 06:07:59;;;;;;;1.10;0.50;;;;;;;;;;5095901;28;20135;-78
2024/01/22 06:10:27;;;;;;;1.13;0.35;;;;;;;;;;5095074;28;20044;-78
2024/01/22 06:12:53;;;;;;;1.33;0.32;;;;;;;;;;5095834;28;20070;-78
2024/01/22 06:15:19;;;;;;;2.95;0.90;;;;;;;;;;5095986;28;20048;-78
2024/01/22 06:17:45;;;;;;;4.32;0.90;;;;;;;;;;5095061;28;20427;-78
2024/01/22 06:20:11;;;;;;;1.50;0.60;;;;;;;;;;5094726;28;20485;-78
2024/01/22 06:22:38;;;;;;;3.65;0.60;;;;;;;;;;5095879;28;20139;-79
2024/01/22 06:25:05;;;;;;;2.45;0.63;;;;;;;;;;5095279;28;20441;-79
2024/01/22 06:27:31;;;;;;;1.45;0.55;;;;;;;;;;5094535;28;20051;-79
2024/01/22 06:29:59;;;;;;;3.58;0.80;;;;;;;;;;5095282;28;20097;-79
2024/01/22 06:32:26;;;;;;;4.32;1.08;;;;;;;;;;5094574;28;20083;-79
2024/01/22 06:34:52;;;;;;;2.38;0.70;;;;;;;;;;5095602;28;20090;-79
2024/01/22 06:37:18;;;;;;;2.33;0.73;;;;;;;;;;5094589;28;20487;-79
2024/01/22 06:39:44;;;;;;;1.92;0.65;;;;;;;;;;5095625;28;20184;-79
2024/01/22 06:42:10;;;;;;;3.17;1.02;;;;;;;;;;5095564;28;20048;-78
2024/01/22 06:44:36;;;;;;;5.55;0.63;;;;;;;;;;5094576;28;20081;-79
2024/01/22 06:47:03;;;;;;;7.20;0.77;;;;;;;;;;5095704;28;20090;-79
2024/01/22 06:49:29;;;;;;;4.90;0.70;;;;;;;;;;5095309;28;20048;-79
2024/01/22 06:51:56;;;;;;;4.75;0.70;;;;;;;;;;5094288;28;20052;-79
2024/01/22 06:54:22;;;;;;;3.25;1.05;;;;;;;;;;5093769;28;20141;-78
2024/01/22 06:56:48;;;;;;;4.70;0.80;;;;;;;;;;5099916;28;20508;-78
2024/01/22 06:59:14;;;;;;;2.55;0.85;;;;;;;;;;5097789;28;20066;-78
2024/01/22 07:01:41;;;;;;;4.20;0.70;;;;;;;;;;5097485;28;20497;-78
2024/01/22 07:04:08;;;;;;;5.90;0.60;;;;;;;;;;5115401;28;20130;-79
2024/01/22 07:06:35;;;;;;;6.20;0.50;;;;;;;;;;5097163;28;20421;-79
2024/01/22 07:09:02;;;;;;;4.63;0.65;;;;;;;;;;5097325;28;20101;-79
2024/01/22 07:11:28;;;;;;;8.18;0.68;;;;;;;;;;5100028;27;20467;-79
2024/01/22 07:13:54;;;;;;;6.70;0.47;;;;;;;;;;5117546;27;20051;-79
2024/01/22 07:16:20;;;;;;;6.65;1.17;;;;;;;;;;5138065;27;20072;-79
2024/01/22 07:18:47;;;;;;;6.05;0.57;;;;;;;;;;5156344;27;20065;-78
2024/01/22 07:21:13;;;;;;;7.80;1.15;;;;;;;;;;5156387;27;20047;-79
2024/01/22 07:23:39;;;;;;;11.88;1.55;;;;;;;;;;5156189;27;20082;-78
2024/01/22 07:26:05;;;;;;;8.48;0.90;;;;;;;;;;5137442;27;20088;-77
2024/01/22 07:28:32;;;;;;;12.63;1.50;;;;;;;;;;5156215;27;20082;-80
2024/01/22 07:30:58;;;;;;;10.30;1.25;;;;;;;;;;5120788;27;20474;-80
2024/01/22 07:33:24;;;;;;;10.90;1.50;;;;;;;;;;5104313;27;20043;-80
2024/01/22 07:35:50;;;;;;;13.82;1.50;;;;;;;;;;5103646;27;20053;-80
2024/01/22 07:38:16;;;;;;;14.00;1.88;;;;;;;;;;5122934;27;20490;-80
2024/01/22 07:40:43;;;;;;;13.95;1.83;;;;;;;;;;5117091;27;20441;-81
2024/01/22 07:43:09;;;;;;;11.00;1.10;;;;;;;;;;5116991;27;20039;-82
2024/01/22 07:45:36;;;;;;;9.55;1.38;;;;;;;;;;5100315;27;20055;-82
2024/01/22 07:48:02;;;;;;;13.65;2.15;;;;;;;;;;5100185;27;20054;-79
2024/01/22 07:50:28;;;;;;;11.50;1.27;;;;;;;;;;5116660;27;20137;-82
2024/01/22 07:52:54;;;;;;;13.43;1.60;;;;;;;;;;5116831;27;20042;-78
2024/01/22 07:55:20;;;;;;;13.45;2.03;;;;;;;;;;5134981;27;20046;-83
2024/01/22 07:57:46;;;;;;;17.10;2.08;;;;;;;;;;5096132;28;20480;-81
2024/01/22 08:00:13;;;;;;;10.10;1.15;;;;;;;;;;5113269;28;20043;-79
2024/01/22 08:02:42;;;;;;;14.05;1.92;;;;;;;;;;5113416;28;20048;-84
2024/01/22 08:05:13;;;;;;;10.95;1.80;;;;;;;;;;5114362;28;20419;-79
2024/01/22 08:07:39;;;;;;;11.73;1.63;;;;;;;;;;5114242;28;20369;-79
2024/01/22 08:10:05;;;;;;;15.55;1.88;;;;;;;;;;5113336;28;20082;-78
2024/01/22 08:12:31;;;;;;;13.95;1.83;;;;;;;;;;5113303;28;20422;-81
2024/01/22 08:14:57;;;;;;;14.65;2.53;;;;;;;;;;5113222;28;20086;-81
2024/01/22 08:17:23;;;;;;;14.43;1.75;;;;;;;;;;5113245;28;20463;-81
2024/01/22 08:19:49;;;;;;;14.52;1.77;;;;;;;;;;5113141;28;20108;-80
2024/01/22 08:22:16;;;;;;;15.15;1.90;;;;;;;;;;5113671;28;20035;-80
2024/01/22 08:24:42;;;;;;;6.40;1.40;;;;;;;;;;5112569;28;20068;-78
2024/01/22 08:27:08;;;;;;;9.15;2.22;;;;;;;;;;5113293;28;20043;-78
2024/01/22 08:29:34;;;;;;;10.20;1.73;;;;;;;;;;5113804;28;20040;-78
2024/01/22 08:32:00;;;;;;;6.22;1.13;;;;;;;;;;5114029;28;20047;-79
2024/01/22 08:34:26;;;;;;;7.20;1.75;;;;;;;;;;5114368;28;20043;-79
2024/01/22 08:36:52;;;;;;;5.68;0.90;;;;;;;;;;5117355;28;20399;-79
2024/01/22 08:39:18;;;;;;;8.63;1.35;;;;;;;;;;5117218;28;20048;-79
2024/01/22 08:41:44;;;;;;;6.60;1.35;;;;;;;;;;5117295;28;20054;-78
2024/01/22 08:44:11;;;;;;;5.43;1.30;;;;;;;;;;5100337;28;20533;-77
2024/01/22 08:46:37;;;;;;;10.27;1.90;;;;;;;;;;5114594;28;20043;-79
2024/01/22 08:49:03;;;;;;;10.20;1.95;;;;;;;;;;5116867;28;20487;-79
2024/01/22 08:51:29;;;;;;;10.00;1.40;;;;;;;;;;5116460;28;20083;-79
2024/01/22 08:53:55;;;;;;;8.43;1.88;;;;;;;;;;5115940;28;20560;-80
2024/01/22 08:56:21;;;;;;;11.27;2.03;;;;;;;;;;5117139;27;20036;-84
2024/01/22 08:58:47;;;;;;;10.73;2.05;;;;;;;;;;5119515;27;20050;-79
2024/01/22 09:01:13;;;;;;;11.55;2.33;;;;;;;;;;5137660;27;20035;-79
2024/01/22 09:03:39;;;;;;;10.43;2.20;;;;;;;;;;5116745;27;20497;-79
2024/01/22 09:06:06;;;;;;;13.27;2.40;;;;;;;;;;5134084;27;20244;-79
2024/01/22 09:08:35;;;;;;;15.43;2.45;;;;;;;;;;5118891;27;20039;-77
2024/01/22 09:11:02;;;;;;;18.77;3.85;;;;;;;;;;5136861;27;20497;-77
2024/01/22 09:13:28;;;;;;;12.70;2.92;;;;;;;;;;5136962;27;20080;-77
2024/01/22 09:15:54;;;;;;;13.48;2.70;;;;;;;;;;5136897;27;21315;-77
2024/01/22 09:18:21;;;;;;;14.73;2.42;;;;;;;;;;5135495;27;20114;-80
2024/01/22 09:20:47;;;;;;;14.45;2.97;;;;;;;;;;5118552;27;20043;-77
2024/01/22 09:23:13;;;;;;;13.30;2.30;;;;;;;;;;5118896;27;20417;-78
2024/01/22 09:25:41;;;;;;;13.40;1.90;;;;;;;;;;5136438;27;20039;-79
2024/01/22 09:28:08;;;;;;;8.93;1.70;;;;;;;;;;5134473;27;20079;-79
2024/01/22 09:30:34;;;;;;;13.00;2.65;;;;;;;;;;5137021;27;20039;-79
2024/01/22 09:33:00;;;;;;;16.02;2.17;;;;;;;;;;5137647;27;20391;-79
2024/01/22 09:35:26;;;;;;;19.92;3.30;;;;;;;;;;5137195;27;20046;-78
2024/01/22 09:37:54;;;;;;;25.50;4.22;;;;;;;;;;5137357;27;20039;-81
2024/01/22 09:40:23;;;;;;;26.55;4.22;;;;;;;;;;5102305;27;20043;-79
2024/01/22 09:42:50;;;;;;;26.98;3.97;;;;;;;;;;5135300;27;20043;-79
2024/01/22 09:45:16;;;;;;;36.53;4.65;;;;;;;;;;5137090;27;20079;-79
2024/01/22 09:47:44;;;;;;;27.02;5.03;;;;;;;;;;5119404;27;20078;-79
2024/01/22 09:50:11;;;;;;;28.10;4.20;;;;;;;;;;5137996;27;20057;-79
2024/01/22 09:52:40;;;;;;;23.98;4.57;;;;;;;;;;5137148;27;20550;-80
2024/01/22 09:55:07;;;;;;;27.95;4.47;;;;;;;;;;5118861;27;20043;-80
2024/01/22 09:57:33;;;;;;;28.38;4.78;;;;;;;;;;5102012;27;20536;-80
2024/01/22 10:00:00;;;;;;;34.05;4.78;;;;;;;;;;5140841;27;20462;-80
2024/01/22 10:02:26;;;;;;;31.08;5.28;;;;;;;;;;5157969;27;20042;-80
2024/01/22 10:04:52;;;;;;;28.95;5.55;;;;;;;;;;5157975;27;20054;-79
2024/01/22 10:07:19;;;;;;;35.35;5.53;;;;;;;;;;5139328;27;20047;-79
2024/01/22 10:09:47;;;;;;;39.40;6.25;;;;;;;;;;5157838;27;20042;-79
2024/01/22 10:12:13;;;;;;;32.60;5.90;;;;;;;;;;5116217;27;20042;-80
2024/01/22 10:14:41;;;;;;;43.78;6.95;;;;;;;;;;5118957;27;20043;-79
2024/01/22 10:17:17;;;;;;;38.65;6.38;;;;;;;;;;5101813;27;20050;-79
2024/01/22 10:19:45;;;;;;;43.55;6.80;;;;;;;;;;5118701;27;20433;-79
2024/01/22 10:22:12;;;;;;;36.47;7.57;;;;;;;;;;5118853;27;20055;-80
2024/01/22 10:24:39;;;;;;;38.10;6.85;;;;;;;;;;5118542;27;20051;-80
2024/01/22 10:27:15;;;;;;;40.20;8.02;;;;;;;;;;5118693;27;20039;-79
2024/01/22 10:29:45;;;;;;;38.33;7.50;;;;;;;;;;5118585;27;20054;-79
2024/01/22 10:32:11;;;;;;;42.72;7.63;;;;;;;;;;5118358;27;20047;-79
2024/01/22 10:34:46;;;;;;;46.03;7.65;;;;;;;;;;5141969;27;20059;-80
2024/01/22 10:37:12;;;;;;;;;;;;;;;;;;5118742;27;20080;-80
2024/01/22 10:39:39;;;;;;;43.10;7.13;;;;;;;;;;5136460;27;20321;-79
2024/01/22 10:42:08;;;;;;;47.40;7.45;;;;;;;;;;5137158;27;20470;-80
2024/01/22 10:44:38;;;;;;;40.38;6.82;;;;;;;;;;5138985;27;20039;-79
2024/01/22 10:47:04;;;;;;;41.75;7.50;;;;;;;;;;5121738;27;20474;-79
2024/01/22 10:49:31;;;;;;;42.67;7.63;;;;;;;;;;5157199;27;20438;-79
2024/01/22 10:51:59;;;;;;;42.92;6.82;;;;;;;;;;5135805;27;20144;-79
2024/01/22 10:54:26;;;;;;;34.10;5.43;;;;;;;;;;5117512;27;20121;-79
2024/01/22 10:56:54;;;;;;;33.35;6.55;;;;;;;;;;5135267;27;20138;-78
2024/01/22 10:59:22;;;;;;;40.75;7.55;;;;;;;;;;5117806;27;20047;-79
2024/01/22 11:01:50;;;;;;;38.55;6.13;;;;;;;;;;5118031;27;20046;-79
2024/01/22 11:04:18;;;;;;;38.42;6.50;;;;;;;;;;5118002;27;20096;-79
2024/01/22 11:06:45;;;;;;;40.97;7.05;;;;;;;;;;5117713;27;20490;-79
2024/01/22 11:09:12;;;;;;;42.95;7.65;;;;;;;;;;5117458;27;20046;-79
2024/01/22 11:11:39;;;;;;;34.83;6.13;;;;;;;;;;5117812;27;20094;-79
2024/01/22 11:14:05;;;;;;;41.20;7.22;;;;;;;;;;5125836;27;20047;-79
2024/01/22 11:16:31;;;;;;;40.75;7.85;;;;;;;;;;5134644;27;20554;-80
2024/01/22 11:19:07;;;;;;;34.08;6.07;;;;;;;;;;5130716;27;20385;-79
2024/01/22 11:21:34;;;;;;;39.33;7.35;;;;;;;;;;5127560;27;20042;-79
2024/01/22 11:24:05;;;;;;;33.47;5.28;;;;;;;;;;5111062;27;20054;-79
2024/01/22 11:26:31;;;;;;;31.00;6.75;;;;;;;;;;5125814;27;20035;-79
2024/01/22 11:29:10;;;;;;;36.83;6.32;;;;;;;;;;5127579;27;20042;-79
2024/01/22 11:31:37;;;;;;;37.80;6.22;;;;;;;;;;5124536;27;20039;-79
2024/01/22 11:34:06;;;;;;;39.47;8.15;;;;;;;;;;5104645;27;20115;-79
2024/01/22 11:36:50;;;;;;;30.17;5.22;;;;;;;;;;5100449;27;20086;-79
2024/01/22 11:39:35;;;;;;;36.55;6.72;;;;;;;;;;5135328;27;20688;-78
2024/01/22 11:42:16;;;;;;;36.42;6.45;;;;;;;;;;5117267;27;20043;-79
2024/01/22 11:44:48;;;;;;;28.23;5.32;;;;;;;;;;5135305;27;20458;-79
2024/01/22 11:47:14;;;;;;;38.03;6.55;;;;;;;;;;5117311;27;20055;-79
2024/01/22 11:49:40;;;;;;;31.15;6.20;;;;;;;;;;5135236;27;20043;-79
2024/01/22 11:52:14;;;;;;;37.42;5.32;;;;;;;;;;5107871;28;20487;-79
2024/01/22 11:54:58;;;;;;;35.58;5.88;;;;;;;;;;5079208;28;20134;-79
2024/01/22 11:57:25;;;;;;;30.30;5.38;;;;;;;;;;5125948;27;20055;-79
2024/01/22 11:59:58;;;;;;;31.13;5.85;;;;;;;;;;5104422;27;20126;-79
2024/01/22 12:02:24;;;;;;;34.50;5.55;;;;;;;;;;5116733;28;20039;-79
2024/01/22 12:04:58;;;;;;;29.65;5.65;;;;;;;;;;5116958;27;20089;-78
2024/01/22 12:07:24;;;;;;;;;;;;;;;;;;5135600;27;20122;-78
2024/01/22 12:09:50;;;;;;;27.80;4.57;;;;;;;;;;5116758;27;20378;-78
2024/01/22 12:12:16;;;;;;;28.77;5.97;;;;;;;;;;5099949;27;20054;-78
2024/01/22 12:14:43;;;;;;;31.15;5.70;;;;;;;;;;5116633;27;20475;-79
2024/01/22 12:17:09;;;;;;;31.60;5.30;;;;;;;;;;5116675;27;20050;-78
2024/01/22 12:19:35;;;;;;;28.13;5.43;;;;;;;;;;5134746;27;20047;-79
2024/01/22 12:22:01;;;;;;;26.48;4.05;;;;;;;;;;5117046;28;20164;-79
2024/01/22 12:24:27;;;;;;;26.58;4.45;;;;;;;;;;5116692;28;20490;-78
2024/01/22 12:26:53;;;;;;;29.45;5.05;;;;;;;;;;5116821;28;20043;-79
2024/01/22 12:29:22;;;;;;;19.45;4.70;;;;;;;;;;5116696;28;20082;-79
2024/01/22 12:31:48;;;;;;;27.48;4.47;;;;;;;;;;5134683;28;20387;-79
2024/01/22 12:34:16;;;;;;;26.13;5.00;;;;;;;;;;5100038;28;20048;-79
2024/01/22 12:36:42;;;;;;;21.67;4.25;;;;;;;;;;5116601;28;20134;-79
2024/01/22 12:39:08;;;;;;;27.85;4.60;;;;;;;;;;5116554;28;20092;-79
2024/01/22 12:41:35;;;;;;;28.65;4.93;;;;;;;;;;5115896;28;20055;-79
2024/01/22 12:44:01;;;;;;;28.77;4.55;;;;;;;;;;5116500;28;20065;-79
2024/01/22 12:46:27;;;;;;;22.35;4.45;;;;;;;;;;5099490;28;20085;-79
2024/01/22 12:48:56;;;;;;;22.63;4.40;;;;;;;;;;5116493;28;20096;-79
2024/01/22 12:51:25;;;;;;;28.58;5.30;;;;;;;;;;5134489;28;20039;-79
2024/01/22 12:53:52;;;;;;;32.63;4.93;;;;;;;;;;5116350;28;20134;-79
2024/01/22 12:56:18;;;;;;;25.52;4.47;;;;;;;;;;5098815;28;20077;-79
2024/01/22 12:58:44;;;;;;;30.23;4.63;;;;;;;;;;5116714;28;20047;-79
2024/01/22 13:01:13;;;;;;;25.88;4.00;;;;;;;;;;5115943;28;20078;-79
2024/01/22 13:03:39;;;;;;;25.75;5.00;;;;;;;;;;5116677;28;20072;-79
2024/01/22 13:06:05;;;;;;;21.67;3.53;;;;;;;;;;5116299;28;20039;-79
2024/01/22 13:08:31;;;;;;;27.17;4.40;;;;;;;;;;5134367;28;20051;-79
2024/01/22 13:10:58;;;;;;;24.45;4.47;;;;;;;;;;5134354;28;20095;-79
2024/01/22 13:13:24;;;;;;;20.65;3.75;;;;;;;;;;5116212;28;20047;-79
2024/01/22 13:15:53;;;;;;;23.90;3.97;;;;;;;;;;5115993;28;20065;-79
2024/01/22 13:18:19;;;;;;;18.70;3.20;;;;;;;;;;5134182;28;20044;-79
2024/01/22 13:20:47;;;;;;;15.40;2.63;;;;;;;;;;5117617;27;20125;-79
2024/01/22 13:23:14;;;;;;;23.83;4.68;;;;;;;;;;5120021;27;20193;-79
2024/01/22 13:25:40;;;;;;;19.15;3.63;;;;;;;;;;5119718;27;20035;-79
2024/01/22 13:28:06;;;;;;;21.50;3.17;;;;;;;;;;5119782;27;20486;-79
2024/01/22 13:30:33;;;;;;;22.55;4.40;;;;;;;;;;5119782;27;20129;-78
2024/01/22 13:33:01;;;;;;;25.40;4.30;;;;;;;;;;5138005;27;20147;-78
2024/01/22 13:35:27;;;;;;;19.88;3.78;;;;;;;;;;5119611;27;20047;-78
2024/01/22 13:37:55;;;;;;;29.00;5.18;;;;;;;;;;5137817;27;20043;-78
2024/01/22 13:40:22;;;;;;;22.48;4.45;;;;;;;;;;5137615;27;20046;-78
2024/01/22 13:42:48;;;;;;;25.88;4.32;;;;;;;;;;5119427;27;20126;-78
2024/01/22 13:45:15;;;;;;;16.48;3.17;;;;;;;;;;5119541;27;20042;-78
2024/01/22 13:47:41;;;;;;;20.40;3.38;;;;;;;;;;5137215;27;20525;-78
2024/01/22 13:50:07;;;;;;;23.88;4.35;;;;;;;;;;5119453;27;20099;-78
2024/01/22 13:52:34;;;;;;;21.85;4.15;;;;;;;;;;5119355;27;20416;-78
2024/01/22 13:55:00;;;;;;;21.52;3.95;;;;;;;;;;5137003;27;20077;-78
2024/01/22 13:57:26;;;;;;;21.23;4.03;;;;;;;;;;5137152;27;20402;-78
2024/01/22 13:59:52;;;;;;;26.77;3.75;;;;;;;;;;5137479;27;20039;-78
2024/01/22 14:02:18;;;;;;;24.65;3.83;;;;;;;;;;5119140;27;20478;-78
2024/01/22 14:04:44;;;;;;;27.13;4.13;;;;;;;;;;5137428;27;20126;-78
2024/01/22 14:07:10;;;;;;;25.63;3.83;;;;;;;;;;5119079;27;20047;-78
2024/01/22 14:09:37;;;;;;;26.48;4.03;;;;;;;;;;5136985;27;20058;-78
2024/01/22 14:12:04;;;;;;;22.60;4.20;;;;;;;;;;5118967;27;20096;-78
2024/01/22 14:14:30;;;;;;;22.63;4.20;;;;;;;;;;5118960;27;20046;-78
2024/01/22 14:16:56;;;;;;;22.02;3.72;;;;;;;;;;5118949;27;20051;-78
2024/01/22 14:19:22;;;;;;;23.08;3.95;;;;;;;;;;5118862;27;20047;-78
2024/01/22 14:21:48;;;;;;;19.80;4.32;;;;;;;;;;5136871;27;20079;-78
2024/01/22 14:24:14;;;;;;;30.55;4.55;;;;;;;;;;5136879;27;20108;-78
2024/01/22 14:26:40;;;;;;;24.88;4.22;;;;;;;;;;5136423;27;20043;-78
2024/01/22 14:29:08;;;;;;;19.35;3.83;;;;;;;;;;5119159;27;20047;-78
2024/01/22 14:31:34;;;;;;;25.55;3.80;;;;;;;;;;5117699;28;20043;-77
2024/01/22 14:34:00;;;;;;;25.70;4.32;;;;;;;;;;5101650;27;20091;-77
2024/01/22 14:36:26;;;;;;;24.90;4.25;;;;;;;;;;5136660;27;20082;-77